createdAt,value
2022-12-07T00:01:33.889Z,13.93
2022-12-07T00:04:05.696Z,13.65
2022-12-07T00:06:34.933Z,14.63
2022-12-07T00:09:01.766Z,13.70
2022-12-07T00:11:29.693Z,14.70
2022-12-07T00:14:06.253Z,13.40
2022-12-07T00:16:34.274Z,15.00
2022-12-07T00:19:01.322Z,15.02
2022-12-07T00:21:29.557Z,15.60
2022-12-07T00:23:56.752Z,13.75
2022-12-07T00:26:29.937Z,14.20
2022-12-07T00:28:59.510Z,14.40
2022-12-07T00:31:34.211Z,14.73
2022-12-07T00:34:00.683Z,14.10
2022-12-07T00:36:27.707Z,16.63
2022-12-07T00:39:00.824Z,16.30
2022-12-07T00:41:29.278Z,15.25
2022-12-07T00:43:55.986Z,15.25
2022-12-07T00:46:23.424Z,14.10
2022-12-07T00:48:52.286Z,13.02
2022-12-07T00:51:21.713Z,14.25
2022-12-07T00:53:48.546Z,13.68
2022-12-07T00:56:18.469Z,12.80
2022-12-07T00:58:56.860Z,13.98
2022-12-07T01:01:25.168Z,12.80
2022-12-07T01:03:51.850Z,14.02
2022-12-07T01:06:20.191Z,14.18
2022-12-07T01:08:47.845Z,14.30
2022-12-07T01:11:18.842Z,14.48
2022-12-07T01:13:45.716Z,14.07
2022-12-07T01:16:15.236Z,13.80
2022-12-07T01:18:42.148Z,14.85
2022-12-07T01:21:35.707Z,13.40
2022-12-07T01:24:03.608Z,13.95
2022-12-07T01:26:29.996Z,13.88
2022-12-07T01:28:56.625Z,12.75
2022-12-07T01:31:25.634Z,14.23
2022-12-07T01:33:54.566Z,13.48
2022-12-07T01:36:23.827Z,14.15
2022-12-07T01:38:53.594Z,13.05
2022-12-07T01:41:21.738Z,12.63
2022-12-07T01:44:14.974Z,12.48
2022-12-07T01:46:43.587Z,12.48
2022-12-07T01:49:17.039Z,12.60
2022-12-07T01:51:45.839Z,12.77
2022-12-07T01:54:16.034Z,12.80
2022-12-07T01:56:49.970Z,12.45
2022-12-07T01:59:18.740Z,13.00
2022-12-07T02:01:45.241Z,13.20
2022-12-07T02:04:18.848Z,12.15
2022-12-07T02:06:46.670Z,12.52
2022-12-07T02:09:13.371Z,12.73
2022-12-07T02:11:41.774Z,12.77
2022-12-07T02:14:08.298Z,12.15
2022-12-07T02:16:40.866Z,12.90
2022-12-07T02:19:31.872Z,12.27
2022-12-07T02:22:26.587Z,12.50
2022-12-07T02:25:02.026Z,12.38
2022-12-07T02:27:37.493Z,12.15
2022-12-07T02:30:06.993Z,12.70
2022-12-07T02:33:02.804Z,12.85
2022-12-07T02:35:41.866Z,12.93
2022-12-07T02:38:23.468Z,12.48
2022-12-07T02:41:03.234Z,12.82
2022-12-07T02:43:41.298Z,12.75
2022-12-07T02:46:18.231Z,13.10
2022-12-07T02:48:46.359Z,12.32
2022-12-07T02:51:12.846Z,13.35
2022-12-07T02:53:42.125Z,12.45
2022-12-07T02:56:20.570Z,12.93
2022-12-07T03:02:46.169Z,13.20
2022-12-07T03:05:16.432Z,12.00
2022-12-07T03:07:57.972Z,13.05
2022-12-07T03:10:42.645Z,12.43
2022-12-07T03:13:33.847Z,12.48
2022-12-07T03:16:19.177Z,14.95
2022-12-07T03:18:51.648Z,12.38
2022-12-07T03:21:23.083Z,12.73
2022-12-07T03:23:57.007Z,11.93
2022-12-07T03:26:31.015Z,13.20
2022-12-07T03:29:01.820Z,12.75
2022-12-07T03:31:37.212Z,13.43
2022-12-07T03:34:09.606Z,14.88
2022-12-07T03:36:54.323Z,13.65
2022-12-07T03:39:24.871Z,13.07
2022-12-07T03:41:52.728Z,14.57
2022-12-07T03:44:20.416Z,16.15
2022-12-07T03:47:28.280Z,13.57
2022-12-07T03:50:00.713Z,14.25
2022-12-07T03:52:41.424Z,13.93
2022-12-07T03:55:24.190Z,14.52
2022-12-07T03:57:56.312Z,13.68
2022-12-07T04:00:22.945Z,13.27
2022-12-07T04:02:53.135Z,12.95
2022-12-07T04:05:27.023Z,13.55
2022-12-07T04:07:53.493Z,14.15
2022-12-07T04:10:20.417Z,14.60
2022-12-07T04:12:46.977Z,13.35
2022-12-07T04:15:13.626Z,14.10
2022-12-07T04:17:40.101Z,14.25
2022-12-07T04:20:08.824Z,13.63
2022-12-07T04:22:35.269Z,13.38
2022-12-07T04:25:01.697Z,14.30
2022-12-07T04:27:28.167Z,13.70
2022-12-07T04:29:56.076Z,13.80
2022-12-07T04:32:24.643Z,13.23
2022-12-07T04:34:55.366Z,13.43
2022-12-07T04:37:22.452Z,12.10
2022-12-07T04:39:48.936Z,13.75
2022-12-07T04:42:15.341Z,13.02
2022-12-07T04:44:41.806Z,14.63
2022-12-07T04:47:16.580Z,14.85
2022-12-07T04:49:43.003Z,13.98
2022-12-07T04:52:09.419Z,14.63
2022-12-07T04:54:35.834Z,14.55
2022-12-07T04:57:02.241Z,14.43
2022-12-07T04:59:28.632Z,14.35
2022-12-07T05:01:55.132Z,14.55
2022-12-07T05:04:21.578Z,14.73
2022-12-07T05:06:47.964Z,15.73
2022-12-07T05:09:14.384Z,14.90
2022-12-07T05:11:41.131Z,14.10
2022-12-07T05:14:19.901Z,15.38
2022-12-07T05:16:49.511Z,14.25
2022-12-07T05:21:58.833Z,14.68
2022-12-07T05:24:31.199Z,14.37
2022-12-07T05:27:05.900Z,15.82
2022-12-07T05:29:41.573Z,14.88
2022-12-07T05:32:08.059Z,12.48
2022-12-07T05:34:55.687Z,15.45
2022-12-07T05:37:28.290Z,15.35
2022-12-07T05:39:54.778Z,16.50
2022-12-07T05:42:25.326Z,15.68
2022-12-07T05:44:51.768Z,16.83
2022-12-07T05:47:18.195Z,15.52
2022-12-07T05:49:44.635Z,16.42
2022-12-07T05:52:11.130Z,16.63
2022-12-07T05:54:44.619Z,16.83
2022-12-07T05:57:11.103Z,16.35
2022-12-07T05:59:42.647Z,18.08
2022-12-07T06:02:14.798Z,17.23
2022-12-07T06:04:44.306Z,18.50
2022-12-07T06:07:21.841Z,17.52
2022-12-07T06:09:48.325Z,14.23
2022-12-07T06:12:33.407Z,13.30
2022-12-07T06:15:02.101Z,12.30
2022-12-07T06:17:30.551Z,13.13
2022-12-07T06:19:57.065Z,11.63
2022-12-07T06:22:23.598Z,12.25
2022-12-07T06:24:52.209Z,12.35
2022-12-07T06:27:18.740Z,12.20
2022-12-07T06:30:01.101Z,12.18
2022-12-07T06:32:44.960Z,11.82
2022-12-07T06:35:18.590Z,12.02
2022-12-07T06:37:45.027Z,11.60
2022-12-07T06:40:11.628Z,11.80
2022-12-07T06:42:41.056Z,11.05
2022-12-07T06:45:13.728Z,12.20
2022-12-07T06:47:41.087Z,12.07
2022-12-07T06:50:09.639Z,11.73
2022-12-07T06:52:36.018Z,13.05
2022-12-07T06:55:02.443Z,12.13
2022-12-07T06:57:28.833Z,12.18
2022-12-07T06:59:55.236Z,11.52
2022-12-07T07:02:21.661Z,11.68
2022-12-07T07:04:48.140Z,11.70
2022-12-07T07:07:14.550Z,10.68
2022-12-07T07:09:42.383Z,10.52
2022-12-07T07:12:08.834Z,9.70
2022-12-07T07:14:35.297Z,9.88
2022-12-07T07:17:01.755Z,10.90
2022-12-07T07:19:28.182Z,10.02
2022-12-07T07:21:54.567Z,11.52
2022-12-07T07:24:23.940Z,21.65
2022-12-07T07:26:50.328Z,21.52
2022-12-07T07:29:16.761Z,28.30
2022-12-07T07:31:43.153Z,20.27
2022-12-07T07:34:09.560Z,15.48
2022-12-07T07:36:37.084Z,18.20
2022-12-07T07:39:03.825Z,15.45
2022-12-07T07:41:35.210Z,13.50
2022-12-07T07:44:01.600Z,11.50
2022-12-07T07:46:34.973Z,11.73
2022-12-07T07:49:01.462Z,11.15
2022-12-07T07:51:27.945Z,11.32
2022-12-07T07:53:54.951Z,12.00
2022-12-07T07:56:21.350Z,10.57
2022-12-07T07:58:47.738Z,10.45
2022-12-07T08:01:14.634Z,11.10
2022-12-07T08:03:41.317Z,11.32
2022-12-07T08:06:09.742Z,11.20
2022-12-07T08:08:36.127Z,12.00
2022-12-07T08:11:06.557Z,12.25
2022-12-07T08:13:37.318Z,12.20
2022-12-07T08:16:09.805Z,10.88
2022-12-07T08:18:37.659Z,10.40
2022-12-07T08:21:04.694Z,12.65
2022-12-07T08:23:39.474Z,11.52
2022-12-07T08:26:10.171Z,11.10
2022-12-07T08:28:36.968Z,11.02
2022-12-07T08:31:09.525Z,12.32
2022-12-07T08:33:52.174Z,11.75
2022-12-07T08:36:19.076Z,11.02
2022-12-07T08:39:07.804Z,11.80
2022-12-07T08:43:58.875Z,10.45
2022-12-07T08:46:37.701Z,12.27
2022-12-07T08:49:25.774Z,10.80
2022-12-07T08:51:52.571Z,11.98
2022-12-07T08:54:20.159Z,11.02
2022-12-07T08:56:49.500Z,12.10
2022-12-07T08:59:20.487Z,10.63
2022-12-07T09:01:47.041Z,12.35
2022-12-07T09:04:13.620Z,12.90
2022-12-07T09:06:40.377Z,12.30
2022-12-07T09:09:07.580Z,12.82
2022-12-07T09:11:34.091Z,12.63
2022-12-07T09:14:00.504Z,13.57
2022-12-07T09:16:29.607Z,12.75
2022-12-07T09:18:56.185Z,12.95
2022-12-07T09:21:22.800Z,12.95
2022-12-07T09:23:49.183Z,14.25
2022-12-07T09:26:15.796Z,13.75
2022-12-07T09:28:42.220Z,14.48
2022-12-07T09:31:26.004Z,15.07
2022-12-07T09:34:00.667Z,14.50
2022-12-07T09:36:28.716Z,12.85
2022-12-07T09:38:56.393Z,13.20
2022-12-07T09:41:25.324Z,14.20
2022-12-07T09:44:12.342Z,13.60
2022-12-07T09:46:47.232Z,13.10
2022-12-07T09:49:20.294Z,12.80
2022-12-07T09:52:09.644Z,13.68
2022-12-07T09:54:46.893Z,13.02
2022-12-07T09:57:13.675Z,12.00
2022-12-07T09:59:41.570Z,13.55
2022-12-07T10:02:36.123Z,13.38
2022-12-07T10:05:23.526Z,15.02
2022-12-07T10:07:51.064Z,14.85
2022-12-07T10:10:26.059Z,13.23
2022-12-07T10:12:58.640Z,20.77
2022-12-07T10:15:49.388Z,18.05
2022-12-07T10:18:32.352Z,15.55
2022-12-07T10:21:04.195Z,12.20
2022-12-07T10:23:31.219Z,12.75
2022-12-07T10:25:57.757Z,11.90
2022-12-07T10:28:24.225Z,13.07
2022-12-07T10:31:04.973Z,12.55
2022-12-07T10:33:34.507Z,12.93
2022-12-07T10:36:10.088Z,12.68
2022-12-07T10:38:47.145Z,10.90
2022-12-07T10:41:13.633Z,12.05
2022-12-07T10:43:48.271Z,11.80
2022-12-07T10:46:37.813Z,13.43
2022-12-07T10:49:32.650Z,11.20
2022-12-07T10:52:31.119Z,12.25
2022-12-07T10:55:16.386Z,9.70
2022-12-07T10:57:57.901Z,9.63
2022-12-07T11:00:29.413Z,9.43
2022-12-07T11:03:13.695Z,9.80
2022-12-07T11:06:21.934Z,7.80
2022-12-07T11:09:12.126Z,11.00
2022-12-07T11:12:07.718Z,10.77
2022-12-07T11:14:51.644Z,12.10
2022-12-07T11:17:37.362Z,12.05
2022-12-07T11:20:22.204Z,12.52
2022-12-07T11:23:03.782Z,12.85
2022-12-07T11:25:33.240Z,12.65
2022-12-07T11:28:40.416Z,10.77
2022-12-07T11:31:38.969Z,11.73
2022-12-07T11:34:31.458Z,11.07
2022-12-07T11:37:05.900Z,11.70
2022-12-07T11:39:53.464Z,11.60
2022-12-07T11:42:29.744Z,11.77
2022-12-07T11:47:39.847Z,10.60
2022-12-07T11:50:33.916Z,12.27
2022-12-07T11:53:09.459Z,12.43
2022-12-07T11:56:19.796Z,11.38
2022-12-07T11:58:52.266Z,11.52
2022-12-07T12:01:56.348Z,11.85
2022-12-07T12:04:57.702Z,12.57
2022-12-07T12:10:16.151Z,12.05
2022-12-07T12:16:02.588Z,11.75
2022-12-07T12:18:58.227Z,11.65
2022-12-07T12:21:29.483Z,10.80
2022-12-07T12:23:58.945Z,11.15
2022-12-07T12:26:29.263Z,11.18
2022-12-07T12:29:38.127Z,7.38
2022-12-07T12:32:14.895Z,6.72
2022-12-07T12:35:00.184Z,6.82
2022-12-07T12:37:35.835Z,6.05
2022-12-07T12:40:22.471Z,6.00
2022-12-07T12:42:52.091Z,6.07
2022-12-07T12:45:23.457Z,5.35
2022-12-07T12:47:54.768Z,4.82
2022-12-07T12:50:47.568Z,5.07
2022-12-07T12:53:29.251Z,5.03
2022-12-07T12:56:15.404Z,4.72
2022-12-07T12:58:46.843Z,5.55
2022-12-07T13:01:38.437Z,6.93
2022-12-07T13:04:28.767Z,7.57
2022-12-07T13:06:57.334Z,6.05
2022-12-07T13:09:34.295Z,5.55
2022-12-07T13:12:12.209Z,7.00
2022-12-07T13:14:59.625Z,6.18
2022-12-07T13:17:32.054Z,5.28
2022-12-07T13:20:04.124Z,5.43
2022-12-07T13:22:33.291Z,5.72
2022-12-07T13:25:24.686Z,5.30
2022-12-07T13:28:15.784Z,4.18
2022-12-07T13:31:04.410Z,6.28
2022-12-07T13:33:31.579Z,5.72
2022-12-07T13:36:01.429Z,6.03
2022-12-07T13:38:34.838Z,6.85
2022-12-07T13:41:16.737Z,6.50
2022-12-07T13:44:03.982Z,7.00
2022-12-07T13:46:57.138Z,6.70
2022-12-07T13:49:27.391Z,7.35
2022-12-07T13:52:21.234Z,6.63
2022-12-07T13:55:07.133Z,5.38
2022-12-07T13:57:37.340Z,4.63
2022-12-07T14:00:18.735Z,5.10
2022-12-07T14:03:34.967Z,10.15
2022-12-07T14:06:29.390Z,7.20
2022-12-07T14:09:23.728Z,7.28
2022-12-07T14:11:56.304Z,6.38
2022-12-07T14:14:36.230Z,5.32
2022-12-07T14:17:20.734Z,4.72
2022-12-07T14:19:48.950Z,5.32
2022-12-07T14:22:39.127Z,5.60
2022-12-07T14:25:14.756Z,5.15
2022-12-07T14:28:01.630Z,5.88
2022-12-07T14:33:26.768Z,6.00
2022-12-07T14:35:58.934Z,5.40
2022-12-07T14:38:31.719Z,5.45
2022-12-07T14:41:34.377Z,5.68
2022-12-07T14:44:23.561Z,6.45
2022-12-07T14:49:39.448Z,6.40
2022-12-07T14:55:05.467Z,6.80
2022-12-07T14:57:39.419Z,6.68
2022-12-07T15:00:08.112Z,7.47
2022-12-07T15:02:47.947Z,6.95
2022-12-07T15:05:16.655Z,6.80
2022-12-07T15:07:46.155Z,6.88
2022-12-07T15:10:23.344Z,7.18
2022-12-07T15:13:25.092Z,6.85
2022-12-07T15:16:09.029Z,6.75
2022-12-07T15:18:35.628Z,7.15
2022-12-07T15:21:02.090Z,6.80
2022-12-07T15:23:29.499Z,7.72
2022-12-07T15:25:57.982Z,6.82
2022-12-07T15:28:25.430Z,7.07
2022-12-07T15:30:56.086Z,7.80
2022-12-07T15:33:22.623Z,7.65
2022-12-07T15:35:50.113Z,7.80
2022-12-07T15:38:39.543Z,7.45
2022-12-07T15:41:19.201Z,7.03
2022-12-07T15:44:04.262Z,7.68
2022-12-07T15:46:50.240Z,7.20
2022-12-07T15:49:21.299Z,7.43
2022-12-07T15:51:50.832Z,7.82
2022-12-07T15:54:24.144Z,8.45
2022-12-07T15:56:52.996Z,8.18
2022-12-07T15:59:19.540Z,8.90
2022-12-07T16:01:46.121Z,8.27
2022-12-07T16:04:28.084Z,8.07
2022-12-07T16:06:54.498Z,8.48
2022-12-07T16:09:22.265Z,9.05
2022-12-07T16:11:53.687Z,8.82
2022-12-07T16:14:20.425Z,9.05
2022-12-07T16:16:47.039Z,8.30
2022-12-07T16:19:16.570Z,8.88
2022-12-07T16:21:43.334Z,8.73
2022-12-07T16:24:16.368Z,8.30
2022-12-07T16:26:49.888Z,9.68
2022-12-07T16:29:21.485Z,9.65
2022-12-07T16:31:48.702Z,8.90
2022-12-07T16:34:17.641Z,9.02
2022-12-07T16:37:05.736Z,9.18
2022-12-07T16:39:35.770Z,8.60
2022-12-07T16:42:03.665Z,7.85
2022-12-07T16:44:30.143Z,8.98
2022-12-07T16:47:16.138Z,9.35
2022-12-07T16:49:43.652Z,11.63
2022-12-07T16:52:20.731Z,10.60
2022-12-07T16:54:49.621Z,9.93
2022-12-07T16:57:22.306Z,10.13
2022-12-07T16:59:49.724Z,9.95
2022-12-07T17:02:17.208Z,9.60
2022-12-07T17:04:43.775Z,10.50
2022-12-07T17:07:14.388Z,12.55
2022-12-07T17:09:42.822Z,12.52
2022-12-07T17:12:12.435Z,13.98
2022-12-07T17:14:58.742Z,15.00
2022-12-07T17:17:25.307Z,12.45
2022-12-07T17:19:51.739Z,13.52
2022-12-07T17:22:18.198Z,14.15
2022-12-07T17:24:44.706Z,13.85
2022-12-07T17:27:12.130Z,13.48
2022-12-07T17:29:52.960Z,14.15
2022-12-07T17:32:26.565Z,12.43
2022-12-07T17:34:55.019Z,11.18
2022-12-07T17:37:26.871Z,11.77
2022-12-07T17:39:58.239Z,11.57
2022-12-07T17:42:37.991Z,11.35
2022-12-07T17:45:09.683Z,10.45
2022-12-07T17:47:37.583Z,11.63
2022-12-07T17:50:07.409Z,12.23
2022-12-07T17:53:06.056Z,11.93
2022-12-07T17:55:49.551Z,11.43
2022-12-07T17:58:24.064Z,11.48
2022-12-07T18:00:51.632Z,11.55
2022-12-07T18:03:32.335Z,12.15
2022-12-07T18:06:01.889Z,12.32
2022-12-07T18:08:36.631Z,12.30
2022-12-07T18:11:11.883Z,11.45
2022-12-07T18:13:54.901Z,12.07
2022-12-07T18:16:25.572Z,11.43
2022-12-07T18:18:55.343Z,11.48
2022-12-07T18:21:28.423Z,11.68
2022-12-07T18:23:58.312Z,11.10
2022-12-07T18:26:26.642Z,11.45
2022-12-07T18:29:01.167Z,11.02
2022-12-07T18:31:33.294Z,11.02
2022-12-07T18:34:11.920Z,11.68
2022-12-07T18:36:46.616Z,12.50
2022-12-07T18:39:14.681Z,11.85
2022-12-07T18:41:43.639Z,12.13
2022-12-07T18:44:10.932Z,12.75
2022-12-07T18:46:38.024Z,12.05
2022-12-07T18:49:11.537Z,12.30
2022-12-07T18:51:40.748Z,12.88
2022-12-07T18:54:19.671Z,11.93
2022-12-07T18:56:46.046Z,12.50
2022-12-07T18:59:33.257Z,11.45
2022-12-07T19:01:59.882Z,11.43
2022-12-07T19:04:27.575Z,12.13
2022-12-07T19:06:54.046Z,12.73
2022-12-07T19:09:22.544Z,12.13
2022-12-07T19:11:53.082Z,12.02
2022-12-07T19:14:25.352Z,13.63
2022-12-07T19:17:03.474Z,11.90
2022-12-07T19:19:34.545Z,12.93
2022-12-07T19:22:01.410Z,14.20
2022-12-07T19:24:28.713Z,14.13
2022-12-07T19:26:55.935Z,13.88
2022-12-07T19:29:31.122Z,13.48
2022-12-07T19:31:58.990Z,8.77
2022-12-07T20:14:57.557Z,13.65
2022-12-07T20:17:24.129Z,13.10
2022-12-07T20:19:50.609Z,12.65
2022-12-07T20:22:18.050Z,13.02
2022-12-07T20:24:46.522Z,12.50
2022-12-07T20:27:14.507Z,13.18
2022-12-07T20:29:41.005Z,13.20
2022-12-07T20:32:13.375Z,14.55
2022-12-07T20:34:40.930Z,12.63
2022-12-07T20:37:07.435Z,13.27
2022-12-07T20:39:33.995Z,13.18
2022-12-07T20:42:18.886Z,14.57
2022-12-07T20:44:45.318Z,12.88
2022-12-07T20:47:12.633Z,13.23
2022-12-07T20:49:39.034Z,14.60
2022-12-07T20:52:05.548Z,15.68
2022-12-07T20:54:31.956Z,13.57
2022-12-07T20:56:58.432Z,13.52
2022-12-07T20:59:24.913Z,14.07
2022-12-07T21:01:51.515Z,14.32
2022-12-07T21:04:18.283Z,13.43
2022-12-07T21:06:44.944Z,13.05
2022-12-07T21:09:11.983Z,12.43
2022-12-07T21:11:39.243Z,13.70
2022-12-07T21:14:05.945Z,14.80
2022-12-07T21:16:32.773Z,14.60
2022-12-07T21:19:02.605Z,15.25
2022-12-07T21:21:30.796Z,16.10
2022-12-07T21:24:03.191Z,16.98
2022-12-07T21:26:33.770Z,16.48
2022-12-07T21:29:01.484Z,16.42
2022-12-07T21:31:29.302Z,16.23
2022-12-07T21:33:56.979Z,15.75
2022-12-07T21:36:25.679Z,15.65
2022-12-07T21:38:52.552Z,16.00
2022-12-07T21:41:31.790Z,15.35
2022-12-07T21:43:59.623Z,15.07
2022-12-07T21:46:33.762Z,14.48
2022-12-07T21:49:11.661Z,14.57
2022-12-07T21:51:42.182Z,15.05
2022-12-07T21:54:11.883Z,15.20
2022-12-07T21:56:45.273Z,16.00
2022-12-07T21:59:17.628Z,15.35
2022-12-07T22:01:48.461Z,14.50
2022-12-07T22:04:20.613Z,15.15
2022-12-07T22:06:47.719Z,15.02
2022-12-07T22:09:14.999Z,15.18
2022-12-07T22:11:42.605Z,16.08
2022-12-07T22:14:28.895Z,15.63
2022-12-07T22:16:57.755Z,14.45
2022-12-07T22:19:24.806Z,14.63
2022-12-07T22:21:51.450Z,14.82
2022-12-07T22:24:17.872Z,15.05
2022-12-07T22:26:44.375Z,15.40
2022-12-07T22:29:11.540Z,16.15
2022-12-07T22:31:38.764Z,15.95
2022-12-07T22:34:05.391Z,15.75
2022-12-07T22:36:31.870Z,15.98
2022-12-07T22:38:58.395Z,16.17
2022-12-07T22:41:32.194Z,16.30
2022-12-07T22:43:59.907Z,17.75
2022-12-07T22:46:27.043Z,19.75
2022-12-07T22:48:54.053Z,19.42
2022-12-07T22:51:22.298Z,17.73
2022-12-07T22:53:49.476Z,17.08
2022-12-07T22:56:16.080Z,16.73
2022-12-07T22:58:42.542Z,15.60
2022-12-07T23:01:13.134Z,15.30
2022-12-07T23:03:40.170Z,15.73
2022-12-07T23:06:15.618Z,17.42
2022-12-07T23:08:43.456Z,17.13
2022-12-07T23:11:37.358Z,16.42
2022-12-07T23:14:09.679Z,18.05
2022-12-07T23:16:36.318Z,17.17
2022-12-07T23:19:02.792Z,14.18
2022-12-07T23:21:29.238Z,15.38
2022-12-07T23:23:55.681Z,14.70
2022-12-07T23:26:22.163Z,15.38
2022-12-07T23:28:48.616Z,14.98
2022-12-07T23:31:22.010Z,15.88
2022-12-07T23:33:48.512Z,15.77
2022-12-07T23:36:16.808Z,16.27
2022-12-07T23:38:44.530Z,16.25
2022-12-07T23:41:13.763Z,16.67
2022-12-07T23:43:41.381Z,16.13
2022-12-07T23:46:10.839Z,16.88
2022-12-07T23:48:38.624Z,15.77
2022-12-07T23:51:06.378Z,14.88
2022-12-07T23:53:37.656Z,15.52
2022-12-07T23:56:05.074Z,16.02
2022-12-07T23:58:32.047Z,14.55
